La rose des vents
Donnes mto: Semaine 14/07/08 - 20/07/08 (S 29)
Date Horaire Temp. E. Hum. E. P.atmo. Pluie Vent 1mn Direction Ensoleilleme Ev.Tr. Solaire P. de rose Temp au vent Rafales
14/07/2008 00:00 21,6 C 41 % 1005,3 hPa 0,0 l/m 19,0 km/h (3 Bft) SO 0,00 h 0,203 mm 0 W/m 7,6 C 21,6 C 24,9 km/h (4 Bft)
14/07/2008 01:00 21,0 C 40 % 1005,8 hPa 0,0 l/m 12,0 km/h (2 Bft) SO 0,00 h 0,178 mm 0 W/m 6,7 C 21,0 C 16,9 km/h (3 Bft)
14/07/2008 02:00 20,4 C 40 % 1005,7 hPa 0,0 l/m 6,5 km/h (2 Bft) S-SO 0,00 h 0,127 mm 0 W/m 6,1 C 20,4 C 9,4 km/h (2 Bft)
14/07/2008 03:00 18,9 C 46 % 1006,3 hPa 0,0 l/m 5,8 km/h (2 Bft) O 0,00 h 0,102 mm 0 W/m 6,9 C 18,9 C 8,4 km/h (2 Bft)
14/07/2008 04:00 18,6 C 46 % 1006,5 hPa 0,0 l/m 6,9 km/h (2 Bft) O 0,00 h 0,076 mm 0 W/m 6,8 C 18,6 C 10,4 km/h (2 Bft)
14/07/2008 05:00 18,2 C 47 % 1006,6 hPa 0,0 l/m 16,3 km/h (3 Bft) O-SO 0,00 h 0,076 mm 0 W/m 6,8 C 18,2 C 21,6 km/h (4 Bft)
14/07/2008 06:00 17,4 C 51 % 1007,2 hPa 0,0 l/m 5,2 km/h (1 Bft) O 0,00 h 0,127 mm 16 W/m 7,3 C 17,4 C 8,1 km/h (2 Bft)
14/07/2008 07:00 18,2 C 51 % 1007,9 hPa 0,0 l/m 0,3 km/h (0 Bft) N-NO 0,22 h 0,051 mm 78 W/m 7,8 C 18,2 C 1,1 km/h (0 Bft)
14/07/2008 08:00 21,2 C 45 % 1008,3 hPa 0,0 l/m 1,0 km/h (0 Bft) N-NO 1,00 h 0,051 mm 339 W/m 8,7 C 21,2 C 2,4 km/h (1 Bft)
14/07/2008 09:00 23,1 C 40 % 1009,0 hPa 0,0 l/m 5,3 km/h (1 Bft) S 1,00 h 0,229 mm 511 W/m 8,9 C 23,1 C 8,7 km/h (2 Bft)
14/07/2008 10:00 24,2 C 40 % 1009,6 hPa 0,0 l/m 9,0 km/h (2 Bft) S 1,00 h 0,356 mm 663 W/m 9,8 C 24,2 C 14,4 km/h (3 Bft)
14/07/2008 11:00 25,4 C 40 % 1010,3 hPa 0,0 l/m 9,8 km/h (2 Bft) E 1,00 h 0,508 mm 782 W/m 10,7 C 25,4 C 15,6 km/h (3 Bft)
14/07/2008 12:00 26,3 C 44 % 1010,8 hPa 0,0 l/m 12,9 km/h (3 Bft) E 1,00 h 0,584 mm 862 W/m 13,1 C 26,3 C 19,9 km/h (4 Bft)
14/07/2008 13:00 25,7 C 49 % 1012,0 hPa 0,0 l/m 13,0 km/h (3 Bft) E 1,00 h 0,660 mm 922 W/m 14,1 C 25,7 C 20,4 km/h (4 Bft)
14/07/2008 14:00 24,3 C 55 % 1013,6 hPa 0,0 l/m 12,9 km/h (3 Bft) E 0,30 h 0,686 mm 526 W/m 14,7 C 24,3 C 18,7 km/h (3 Bft)
14/07/2008 15:00 25,3 C 54 % 1014,6 hPa 0,0 l/m 8,3 km/h (2 Bft) E-NE 0,77 h 0,432 mm 730 W/m 15,2 C 25,3 C 13,3 km/h (3 Bft)
14/07/2008 16:00 25,3 C 56 % 1014,6 hPa 0,0 l/m 8,0 km/h (2 Bft) S 0,38 h 0,533 mm 440 W/m 15,7 C 25,3 C 11,9 km/h (2 Bft)
14/07/2008 17:00 24,6 C 60 % 1014,9 hPa 0,0 l/m 7,8 km/h (2 Bft) E 0,98 h 0,330 mm 549 W/m 16,4 C 24,6 C 12,6 km/h (3 Bft)
14/07/2008 18:00 23,8 C 62 % 1015,5 hPa 0,0 l/m 8,0 km/h (2 Bft) S 1,00 h 0,406 mm 371 W/m 16,0 C 23,8 C 11,7 km/h (2 Bft)
14/07/2008 19:00 23,6 C 54 % 1015,9 hPa 0,0 l/m 9,3 km/h (2 Bft) S 1,00 h 0,279 mm 203 W/m 13,8 C 23,6 C 13,6 km/h (3 Bft)
14/07/2008 20:00 22,4 C 53 % 1016,5 hPa 0,0 l/m 4,6 km/h (1 Bft) SO 0,07 h 0,203 mm 32 W/m 12,4 C 22,4 C 6,4 km/h (2 Bft)
14/07/2008 21:00 20,9 C 57 % 1016,9 hPa 0,0 l/m 0,6 km/h (0 Bft) SO 0,00 h 0,051 mm 6 W/m 12,2 C 20,9 C 1,3 km/h (1 Bft)
14/07/2008 22:00 19,3 C 62 % 1017,7 hPa 0,0 l/m 1,8 km/h (1 Bft) N 0,00 h 0,025 mm 0 W/m 11,9 C 19,3 C 3,6 km/h (1 Bft)
14/07/2008 23:00 18,6 C 68 % 1018,4 hPa 0,0 l/m 2,5 km/h (1 Bft) N 0,00 h 0,051 mm 0 W/m 12,6 C 18,6 C 5,1 km/h (1 Bft)
15/07/2008 00:00 18,7 C 69 % 1018,9 hPa 0,0 l/m 3,8 km/h (1 Bft) NO 0,00 h 0,051 mm 0 W/m 12,9 C 18,7 C 5,9 km/h (2 Bft)
15/07/2008 01:00 18,8 C 71 % 1019,5 hPa 0,0 l/m 5,2 km/h (1 Bft) NO 0,00 h 0,051 mm 0 W/m 13,3 C 18,8 C 6,7 km/h (2 Bft)
15/07/2008 02:00 18,4 C 70 % 1020,2 hPa 0,0 l/m 2,3 km/h (1 Bft) O-NO 0,00 h 0,051 mm 0 W/m 12,9 C 18,4 C 3,5 km/h (1 Bft)
15/07/2008 03:00 18,2 C 68 % 1020,4 hPa 0,0 l/m 9,0 km/h (2 Bft) O 0,00 h 0,051 mm 0 W/m 12,2 C 18,2 C 12,2 km/h (2 Bft)
15/07/2008 04:00 18,3 C 66 % 1020,8 hPa 0,0 l/m 10,7 km/h (2 Bft) O-NO 0,00 h 0,076 mm 0 W/m 11,8 C 18,3 C 15,2 km/h (3 Bft)
15/07/2008 05:00 18,0 C 64 % 1021,0 hPa 0,0 l/m 6,9 km/h (2 Bft) NO 0,00 h 0,076 mm 0 W/m 11,2 C 18,0 C 10,1 km/h (2 Bft)
15/07/2008 06:00 18,8 C 58 % 1021,0 hPa 0,0 l/m 10,9 km/h (2 Bft) O-NO 0,02 h 0,051 mm 13 W/m 10,4 C 18,8 C 15,4 km/h (3 Bft)
15/07/2008 07:00 20,5 C 53 % 1021,2 hPa 0,0 l/m 5,8 km/h (2 Bft) O-NO 0,22 h 0,076 mm 75 W/m 10,5 C 20,5 C 8,7 km/h (2 Bft)
15/07/2008 08:00 23,2 C 48 % 1021,5 hPa 0,0 l/m 2,3 km/h (1 Bft) NE 1,00 h 0,102 mm 343 W/m 11,7 C 23,2 C 4,6 km/h (1 Bft)
15/07/2008 09:00 26,2 C 42 % 1021,5 hPa 0,0 l/m 4,3 km/h (1 Bft) E-NE 1,00 h 0,229 mm 515 W/m 12,2 C 26,2 C 7,1 km/h (2 Bft)
15/07/2008 10:00 27,7 C 33 % 1021,6 hPa 0,0 l/m 4,9 km/h (1 Bft) E-NE 1,00 h 0,381 mm 669 W/m 10,1 C 27,7 C 8,6 km/h (2 Bft)
15/07/2008 11:00 27,8 C 44 % 1022,3 hPa 0,0 l/m 12,7 km/h (3 Bft) E 1,00 h 0,508 mm 783 W/m 14,1 C 27,8 C 18,3 km/h (3 Bft)
15/07/2008 12:00 28,0 C 38 % 1022,7 hPa 0,0 l/m 12,6 km/h (3 Bft) E 1,00 h 0,635 mm 865 W/m 12,1 C 28,0 C 17,9 km/h (3 Bft)
15/07/2008 13:00 28,2 C 35 % 1023,0 hPa 0,0 l/m 12,4 km/h (3 Bft) E 1,00 h 0,711 mm 899 W/m 11,1 C 28,2 C 17,8 km/h (3 Bft)
15/07/2008 14:00 27,9 C 39 % 1023,0 hPa 0,0 l/m 10,6 km/h (2 Bft) E 1,00 h 0,711 mm 876 W/m 12,7 C 27,9 C 15,7 km/h (3 Bft)
15/07/2008 15:00 28,0 C 36 % 1022,7 hPa 0,0 l/m 8,2 km/h (2 Bft) E 1,00 h 0,686 mm 808 W/m 11,3 C 28,0 C 12,9 km/h (3 Bft)
15/07/2008 16:00 27,8 C 37 % 1022,4 hPa 0,0 l/m 9,4 km/h (2 Bft) E 1,00 h 0,610 mm 693 W/m 11,8 C 27,8 C 14,1 km/h (3 Bft)
15/07/2008 17:00 27,3 C 43 % 1022,2 hPa 0,0 l/m 5,2 km/h (1 Bft) S-SE 1,00 h 0,559 mm 545 W/m 13,5 C 27,3 C 9,5 km/h (2 Bft)
15/07/2008 18:00 26,4 C 44 % 1021,7 hPa 0,0 l/m 6,5 km/h (2 Bft) S-SE 1,00 h 0,406 mm 377 W/m 13,2 C 26,4 C 10,5 km/h (2 Bft)
15/07/2008 19:00 26,0 C 38 % 1021,4 hPa 0,0 l/m 7,7 km/h (2 Bft) S 1,00 h 0,305 mm 208 W/m 10,5 C 26,0 C 11,3 km/h (2 Bft)
15/07/2008 20:00 24,1 C 39 % 1021,2 hPa 0,0 l/m 7,0 km/h (2 Bft) S-SO 0,12 h 0,229 mm 33 W/m 9,1 C 24,1 C 10,0 km/h (2 Bft)
15/07/2008 21:00 22,2 C 45 % 1021,4 hPa 0,0 l/m 1,6 km/h (1 Bft) SO 0,02 h 0,102 mm 6 W/m 9,8 C 22,2 C 2,7 km/h (1 Bft)
15/07/2008 22:00 20,7 C 51 % 1021,5 hPa 0,0 l/m 1,7 km/h (1 Bft) SO 0,00 h 0,025 mm 0 W/m 10,1 C 20,7 C 3,9 km/h (1 Bft)
15/07/2008 23:00 19,6 C 57 % 1021,3 hPa 0,0 l/m 1,6 km/h (1 Bft) N 0,00 h 0,051 mm 0 W/m 10,8 C 19,6 C 3,9 km/h (1 Bft)
16/07/2008 00:00 19,6 C 57 % 1021,0 hPa 0,0 l/m 2,7 km/h (1 Bft) N-NO 0,00 h 0,051 mm 0 W/m 10,7 C 19,6 C 4,2 km/h (1 Bft)
16/07/2008 01:00 19,6 C 56 % 1020,7 hPa 0,0 l/m 3,1 km/h (1 Bft) NO 0,00 h 0,051 mm 0 W/m 10,6 C 19,6 C 5,5 km/h (1 Bft)
16/07/2008 02:00 19,3 C 58 % 1020,5 hPa 0,0 l/m 1,8 km/h (1 Bft) N-NE 0,00 h 0,051 mm 0 W/m 10,8 C 19,3 C 3,3 km/h (1 Bft)
16/07/2008 03:00 18,6 C 62 % 1020,0 hPa 0,0 l/m 1,4 km/h (1 Bft) SE 0,00 h 0,051 mm 0 W/m 11,1 C 18,6 C 2,9 km/h (1 Bft)
16/07/2008 04:00 18,2 C 64 % 1020,2 hPa 0,0 l/m 3,0 km/h (1 Bft) N-NE 0,00 h 0,051 mm 0 W/m 11,2 C 18,2 C 5,0 km/h (1 Bft)
16/07/2008 05:00 17,9 C 67 % 1021,0 hPa 0,0 l/m 3,1 km/h (1 Bft) N-NE 0,00 h 0,051 mm 0 W/m 11,7 C 17,9 C 5,2 km/h (1 Bft)
16/07/2008 06:00 18,1 C 68 % 1020,9 hPa 0,0 l/m 2,4 km/h (1 Bft) NO 0,02 h 0,025 mm 14 W/m 12,2 C 18,1 C 4,3 km/h (1 Bft)
16/07/2008 07:00 19,4 C 65 % 1020,3 hPa 0,0 l/m 1,1 km/h (0 Bft) NO 0,25 h 0,025 mm 78 W/m 12,7 C 19,4 C 2,2 km/h (1 Bft)
16/07/2008 08:00 22,4 C 56 % 1020,0 hPa 0,0 l/m 1,4 km/h (1 Bft) SO 1,00 h 0,051 mm 346 W/m 13,2 C 22,4 C 3,4 km/h (1 Bft)
16/07/2008 09:00 24,9 C 52 % 1019,9 hPa 0,0 l/m 4,5 km/h (1 Bft) E 1,00 h 0,229 mm 528 W/m 14,3 C 24,9 C 7,8 km/h (2 Bft)
16/07/2008 10:00 25,9 C 58 % 1019,9 hPa 0,0 l/m 10,3 km/h (2 Bft) E 1,00 h 0,381 mm 650 W/m 16,9 C 25,9 C 15,0 km/h (3 Bft)
16/07/2008 11:00 24,7 C 62 % 1019,4 hPa 0,0 l/m 9,4 km/h (2 Bft) E 1,00 h 0,483 mm 657 W/m 16,8 C 24,7 C 13,8 km/h (3 Bft)
16/07/2008 12:00 25,2 C 58 % 1019,3 hPa 0,0 l/m 9,1 km/h (2 Bft) E 0,97 h 0,483 mm 708 W/m 16,3 C 25,2 C 14,8 km/h (3 Bft)
16/07/2008 13:00 25,4 C 53 % 1019,0 hPa 0,0 l/m 9,1 km/h (2 Bft) E 0,67 h 0,508 mm 609 W/m 15,0 C 25,4 C 13,7 km/h (3 Bft)
16/07/2008 14:00 25,1 C 57 % 1018,9 hPa 0,0 l/m 8,0 km/h (2 Bft) E 0,53 h 0,457 mm 541 W/m 15,9 C 25,1 C 11,8 km/h (2 Bft)
16/07/2008 15:00 25,0 C 60 % 1018,6 hPa 0,0 l/m 7,1 km/h (2 Bft) E 0,72 h 0,406 mm 546 W/m 16,6 C 25,0 C 10,6 km/h (2 Bft)
16/07/2008 16:00 26,6 C 53 % 1017,4 hPa 0,0 l/m 7,2 km/h (2 Bft) E 1,00 h 0,381 mm 682 W/m 16,2 C 26,6 C 10,9 km/h (2 Bft)
16/07/2008 17:00 25,9 C 56 % 1016,7 hPa 0,0 l/m 8,0 km/h (2 Bft) E 1,00 h 0,483 mm 533 W/m 16,6 C 25,9 C 13,2 km/h (3 Bft)
16/07/2008 18:00 25,0 C 58 % 1016,4 hPa 0,0 l/m 6,0 km/h (2 Bft) E 1,00 h 0,406 mm 329 W/m 16,0 C 25,0 C 8,9 km/h (2 Bft)
16/07/2008 19:00 24,3 C 65 % 1015,6 hPa 0,0 l/m 3,2 km/h (1 Bft) E-NE 1,00 h 0,254 mm 200 W/m 17,2 C 24,3 C 5,2 km/h (1 Bft)
16/07/2008 20:00 22,5 C 74 % 1015,1 hPa 0,0 l/m 1,2 km/h (1 Bft) E 0,15 h 0,152 mm 39 W/m 17,7 C 22,5 C 2,6 km/h (1 Bft)
16/07/2008 21:00 20,6 C 80 % 1014,6 hPa 0,0 l/m 0,0 km/h (0 Bft) N 0,00 h 0,025 mm 8 W/m 17,1 C 20,6 C 0,0 km/h (0 Bft)
16/07/2008 22:00 19,7 C 83 % 1014,5 hPa 0,0 l/m 0,0 km/h (0 Bft) N 0,00 h 0,000 mm 0 W/m 16,7 C 19,7 C 0,0 km/h (0 Bft)
16/07/2008 23:00 19,2 C 85 % 1014,2 hPa 0,0 l/m 0,0 km/h (0 Bft) E 0,00 h 0,025 mm 0 W/m 16,7 C 19,2 C 0,1 km/h (0 Bft)
17/07/2008 00:00 19,1 C 87 % 1014,2 hPa 0,0 l/m 0,4 km/h (0 Bft) E 0,00 h 0,025 mm 0 W/m 16,9 C 19,1 C 1,3 km/h (1 Bft)
17/07/2008 01:00 18,8 C 89 % 1013,8 hPa 0,0 l/m 0,6 km/h (0 Bft) E 0,00 h 0,025 mm 0 W/m 17,0 C 18,8 C 1,4 km/h (1 Bft)
17/07/2008 02:00 18,2 C 90 % 1013,2 hPa 0,0 l/m 1,4 km/h (1 Bft) E 0,00 h 0,025 mm 0 W/m 16,6 C 18,2 C 2,7 km/h (1 Bft)
17/07/2008 03:00 18,1 C 91 % 1013,4 hPa 0,0 l/m 5,6 km/h (1 Bft) O 0,00 h 0,025 mm 0 W/m 16,6 C 18,1 C 7,4 km/h (2 Bft)
17/07/2008 04:00 17,7 C 92 % 1012,9 hPa 0,0 l/m 6,1 km/h (2 Bft) O 0,00 h 0,025 mm 0 W/m 16,3 C 17,7 C 8,0 km/h (2 Bft)
17/07/2008 05:00 17,3 C 91 % 1012,8 hPa 0,0 l/m 6,0 km/h (2 Bft) O 0,00 h 0,025 mm 5 W/m 15,8 C 17,3 C 8,0 km/h (2 Bft)
17/07/2008 06:00 17,5 C 89 % 1012,8 hPa 0,0 l/m 5,5 km/h (1 Bft) O 0,03 h 0,025 mm 19 W/m 15,7 C 17,5 C 7,0 km/h (2 Bft)
17/07/2008 07:00 18,3 C 86 % 1012,8 hPa 0,0 l/m 3,7 km/h (1 Bft) O 0,00 h 0,025 mm 75 W/m 16,0 C 18,3 C 5,5 km/h (1 Bft)
17/07/2008 08:00 20,0 C 80 % 1012,4 hPa 0,0 l/m 1,2 km/h (1 Bft) NO 0,48 h 0,051 mm 250 W/m 16,5 C 20,0 C 2,7 km/h (1 Bft)
17/07/2008 09:00 22,5 C 73 % 1012,4 hPa 0,0 l/m 3,4 km/h (1 Bft) O-SO 0,75 h 0,152 mm 458 W/m 17,3 C 22,5 C 5,6 km/h (1 Bft)
17/07/2008 10:00 23,3 C 71 % 1011,9 hPa 0,0 l/m 4,2 km/h (1 Bft) E 0,47 h 0,279 mm 460 W/m 17,6 C 23,3 C 7,4 km/h (2 Bft)
17/07/2008 11:00 24,2 C 69 % 1012,0 hPa 0,0 l/m 7,7 km/h (2 Bft) E-SE 0,68 h 0,305 mm 675 W/m 18,1 C 24,2 C 12,9 km/h (3 Bft)
17/07/2008 12:00 25,0 C 67 % 1011,5 hPa 0,0 l/m 9,4 km/h (2 Bft) E 0,25 h 0,457 mm 472 W/m 18,4 C 25,0 C 14,7 km/h (3 Bft)
17/07/2008 13:00 24,6 C 68 % 1011,2 hPa 0,0 l/m 10,6 km/h (2 Bft) E 0,40 h 0,356 mm 530 W/m 18,4 C 24,6 C 15,3 km/h (3 Bft)
17/07/2008 14:00 25,6 C 64 % 1010,5 hPa 0,0 l/m 8,2 km/h (2 Bft) E 1,00 h 0,406 mm 764 W/m 18,1 C 25,6 C 12,7 km/h (3 Bft)
17/07/2008 15:00 26,2 C 62 % 1010,1 hPa 0,0 l/m 10,6 km/h (2 Bft) E 1,00 h 0,533 mm 800 W/m 18,4 C 26,2 C 15,6 km/h (3 Bft)
17/07/2008 16:00 25,4 C 65 % 1009,9 hPa 0,0 l/m 7,9 km/h (2 Bft) E 0,77 h 0,584 mm 503 W/m 18,2 C 25,4 C 12,3 km/h (3 Bft)
17/07/2008 17:00 24,7 C 68 % 1009,7 hPa 0,0 l/m 7,4 km/h (2 Bft) E-NE 0,48 h 0,356 mm 375 W/m 18,4 C 24,7 C 10,8 km/h (2 Bft)
17/07/2008 18:00 24,7 C 71 % 1008,8 hPa 0,0 l/m 7,0 km/h (2 Bft) E-NE 0,85 h 0,279 mm 345 W/m 19,1 C 24,7 C 10,5 km/h (2 Bft)
17/07/2008 19:00 23,5 C 77 % 1008,3 hPa 0,0 l/m 5,0 km/h (1 Bft) E 0,55 h 0,254 mm 159 W/m 19,2 C 23,5 C 8,4 km/h (2 Bft)
17/07/2008 20:00 21,7 C 83 % 1008,1 hPa 0,0 l/m 2,3 km/h (1 Bft) E-SE 0,02 h 0,127 mm 35 W/m 18,7 C 21,7 C 5,2 km/h (1 Bft)
17/07/2008 21:00 20,6 C 87 % 1008,2 hPa 0,0 l/m 3,2 km/h (1 Bft) S-SE 0,00 h 0,025 mm 5 W/m 18,4 C 20,6 C 4,8 km/h (1 Bft)
17/07/2008 22:00 19,9 C 90 % 1008,3 hPa 0,0 l/m 5,4 km/h (1 Bft) O-SO 0,00 h 0,025 mm 0 W/m 18,2 C 19,9 C 6,9 km/h (2 Bft)
17/07/2008 23:00 19,6 C 92 % 1008,3 hPa 0,0 l/m 6,7 km/h (2 Bft) O-SO 0,00 h 0,025 mm 0 W/m 18,3 C 19,6 C 8,6 km/h (2 Bft)
18/07/2008 00:00 19,4 C 93 % 1008,3 hPa 0,0 l/m 5,1 km/h (1 Bft) O 0,00 h 0,025 mm 0 W/m 18,2 C 19,4 C 6,9 km/h (2 Bft)
18/07/2008 01:00 19,4 C 93 % 1008,2 hPa 0,0 l/m 4,5 km/h (1 Bft) O 0,00 h 0,025 mm 0 W/m 18,2 C 19,4 C 6,4 km/h (2 Bft)
18/07/2008 02:00 19,5 C 94 % 1008,1 hPa 0,0 l/m 3,4 km/h (1 Bft) O 0,00 h 0,025 mm 0 W/m 18,4 C 19,5 C 4,9 km/h (1 Bft)
18/07/2008 03:00 19,6 C 94 % 1008,1 hPa 0,0 l/m 3,3 km/h (1 Bft) O 0,00 h 0,025 mm 0 W/m 18,6 C 19,6 C 4,8 km/h (1 Bft)
18/07/2008 04:00 19,6 C 94 % 1007,9 hPa 0,0 l/m 3,3 km/h (1 Bft) O 0,00 h 0,025 mm 0 W/m 18,6 C 19,6 C 5,0 km/h (1 Bft)
18/07/2008 05:00 18,7 C 94 % 1007,6 hPa 0,0 l/m 3,4 km/h (1 Bft) O 0,00 h 0,025 mm 0 W/m 17,7 C 18,7 C 5,3 km/h (1 Bft)
18/07/2008 06:00 17,8 C 93 % 1007,7 hPa 0,0 l/m 6,2 km/h (2 Bft) O-NO 0,00 h 0,000 mm 17 W/m 16,7 C 17,8 C 8,4 km/h (2 Bft)
18/07/2008 07:00 18,6 C 90 % 1007,8 hPa 0,0 l/m 5,2 km/h (1 Bft) O-NO 0,10 h 0,025 mm 71 W/m 17,0 C 18,6 C 7,6 km/h (2 Bft)
18/07/2008 08:00 21,3 C 77 % 1008,0 hPa 0,0 l/m 2,2 km/h (1 Bft) O 0,63 h 0,051 mm 252 W/m 17,2 C 21,3 C 4,1 km/h (1 Bft)
18/07/2008 09:00 23,4 C 68 % 1008,2 hPa 0,0 l/m 2,9 km/h (1 Bft) S-SO 0,72 h 0,152 mm 454 W/m 17,2 C 23,4 C 5,5 km/h (1 Bft)
18/07/2008 10:00 25,3 C 60 % 1008,1 hPa 0,0 l/m 5,1 km/h (1 Bft) S 0,80 h 0,305 mm 613 W/m 17,0 C 25,3 C 8,6 km/h (2 Bft)
18/07/2008 11:00 25,7 C 61 % 1008,3 hPa 0,0 l/m 8,3 km/h (2 Bft) S-SE 0,60 h 0,406 mm 689 W/m 17,6 C 25,7 C 13,2 km/h (3 Bft)
18/07/2008 12:00 25,7 C 61 % 1008,4 hPa 0,0 l/m 8,3 km/h (2 Bft) S 0,23 h 0,483 mm 505 W/m 17,7 C 25,7 C 12,8 km/h (3 Bft)
18/07/2008 13:00 26,6 C 59 % 1008,6 hPa 0,0 l/m 7,1 km/h (2 Bft) E 0,52 h 0,356 mm 607 W/m 17,9 C 26,6 C 12,2 km/h (2 Bft)
18/07/2008 14:00 27,9 C 52 % 1008,6 hPa 0,0 l/m 11,9 km/h (2 Bft) E 0,97 h 0,457 mm 850 W/m 17,1 C 27,9 C 18,1 km/h (3 Bft)
18/07/2008 15:00 26,5 C 57 % 1009,1 hPa 0,0 l/m 9,8 km/h (2 Bft) E 0,53 h 0,635 mm 602 W/m 17,3 C 26,5 C 15,4 km/h (3 Bft)
18/07/2008 16:00 26,8 C 57 % 1009,4 hPa 0,0 l/m 9,5 km/h (2 Bft) E 1,00 h 0,457 mm 666 W/m 17,5 C 26,8 C 14,7 km/h (3 Bft)
18/07/2008 17:00 26,3 C 60 % 1009,7 hPa 0,0 l/m 6,9 km/h (2 Bft) E 1,00 h 0,508 mm 512 W/m 17,8 C 26,3 C 10,9 km/h (2 Bft)
18/07/2008 18:00 26,0 C 61 % 1009,6 hPa 0,0 l/m 4,7 km/h (1 Bft) E 1,00 h 0,381 mm 347 W/m 17,8 C 26,0 C 7,5 km/h (2 Bft)
18/07/2008 19:00 25,1 C 62 % 1009,5 hPa 0,0 l/m 2,8 km/h (1 Bft) S-SO 1,00 h 0,254 mm 179 W/m 17,2 C 25,1 C 5,2 km/h (1 Bft)
18/07/2008 20:00 24,1 C 64 % 1009,7 hPa 0,0 l/m 0,2 km/h (0 Bft) S-SO 0,08 h 0,127 mm 33 W/m 16,9 C 24,1 C 0,6 km/h (0 Bft)
18/07/2008 21:00 22,3 C 71 % 1010,0 hPa 0,0 l/m 0,1 km/h (0 Bft) S-SO 0,00 h 0,025 mm 6 W/m 16,6 C 22,3 C 0,5 km/h (0 Bft)
18/07/2008 22:00 21,0 C 75 % 1010,9 hPa 0,0 l/m 0,2 km/h (0 Bft) S-SO 0,00 h 0,000 mm 0 W/m 16,4 C 21,0 C 0,4 km/h (0 Bft)
18/07/2008 23:00 20,5 C 79 % 1011,4 hPa 0,0 l/m 0,0 km/h (0 Bft) S-SO 0,00 h 0,025 mm 0 W/m 16,6 C 20,5 C 0,3 km/h (0 Bft)
19/07/2008 00:00 19,9 C 81 % 1012,0 hPa 0,0 l/m 0,1 km/h (0 Bft) S-SO 0,00 h 0,025 mm 0 W/m 16,5 C 19,9 C 0,3 km/h (0 Bft)
19/07/2008 01:00 19,4 C 84 % 1012,3 hPa 0,0 l/m 1,1 km/h (1 Bft) S-SO 0,00 h 0,025 mm 0 W/m 16,7 C 19,4 C 2,5 km/h (1 Bft)
19/07/2008 02:00 19,1 C 87 % 1012,3 hPa 0,0 l/m 2,0 km/h (1 Bft) S-SO 0,00 h 0,025 mm 0 W/m 16,8 C 19,1 C 3,5 km/h (1 Bft)
19/07/2008 03:00 18,7 C 88 % 1012,0 hPa 0,0 l/m 1,9 km/h (1 Bft) S-SO 0,00 h 0,025 mm 0 W/m 16,6 C 18,7 C 3,5 km/h (1 Bft)
19/07/2008 04:00 18,7 C 88 % 1012,1 hPa 0,0 l/m 2,1 km/h (1 Bft) S-SO 0,00 h 0,025 mm 0 W/m 16,7 C 18,7 C 4,2 km/h (1 Bft)
19/07/2008 05:00 18,7 C 88 % 1012,3 hPa 0,0 l/m 3,3 km/h (1 Bft) NO 0,00 h 0,025 mm 0 W/m 16,6 C 18,7 C 5,6 km/h (1 Bft)
19/07/2008 06:00 19,0 C 86 % 1012,8 hPa 0,0 l/m 1,5 km/h (1 Bft) NO 0,00 h 0,000 mm 22 W/m 16,7 C 19,0 C 3,1 km/h (1 Bft)
19/07/2008 07:00 19,7 C 85 % 1013,1 hPa 0,0 l/m 0,5 km/h (0 Bft) NO 0,23 h 0,025 mm 99 W/m 17,1 C 19,7 C 1,3 km/h (1 Bft)
19/07/2008 08:00 22,5 C 73 % 1013,5 hPa 0,0 l/m 2,5 km/h (1 Bft) NE 1,00 h 0,051 mm 299 W/m 17,4 C 22,5 C 5,0 km/h (1 Bft)
19/07/2008 09:00 24,6 C 68 % 1013,8 hPa 0,0 l/m 4,4 km/h (1 Bft) E-NE 1,00 h 0,203 mm 471 W/m 18,3 C 24,6 C 7,2 km/h (2 Bft)
19/07/2008 10:00 25,4 C 67 % 1014,1 hPa 0,0 l/m 6,6 km/h (2 Bft) E 1,00 h 0,330 mm 627 W/m 18,8 C 25,4 C 10,2 km/h (2 Bft)
19/07/2008 11:00 26,4 C 63 % 1014,3 hPa 0,0 l/m 8,5 km/h (2 Bft) E 1,00 h 0,432 mm 750 W/m 18,8 C 26,4 C 13,2 km/h (3 Bft)
19/07/2008 12:00 27,0 C 62 % 1014,6 hPa 0,0 l/m 11,1 km/h (2 Bft) E 1,00 h 0,533 mm 833 W/m 18,9 C 27,0 C 16,4 km/h (3 Bft)
19/07/2008 13:00 27,1 C 61 % 1014,5 hPa 0,0 l/m 11,8 km/h (2 Bft) E 1,00 h 0,610 mm 863 W/m 18,9 C 27,1 C 16,9 km/h (3 Bft)
19/07/2008 14:00 27,5 C 60 % 1014,5 hPa 0,0 l/m 9,5 km/h (2 Bft) E 1,00 h 0,635 mm 833 W/m 19,1 C 27,5 C 14,5 km/h (3 Bft)
19/07/2008 15:00 27,3 C 61 % 1014,3 hPa 0,0 l/m 10,6 km/h (2 Bft) E 1,00 h 0,610 mm 769 W/m 19,0 C 27,3 C 15,5 km/h (3 Bft)
19/07/2008 16:00 26,8 C 60 % 1014,1 hPa 0,0 l/m 9,1 km/h (2 Bft) E 1,00 h 0,559 mm 652 W/m 18,5 C 26,8 C 13,7 km/h (3 Bft)
19/07/2008 17:00 27,2 C 57 % 1014,0 hPa 0,0 l/m 7,6 km/h (2 Bft) E 1,00 h 0,483 mm 516 W/m 17,8 C 27,2 C 11,4 km/h (2 Bft)
19/07/2008 18:00 26,2 C 64 % 1013,6 hPa 0,0 l/m 6,4 km/h (2 Bft) E 1,00 h 0,381 mm 349 W/m 18,8 C 26,2 C 9,7 km/h (2 Bft)
19/07/2008 19:00 24,8 C 74 % 1013,5 hPa 0,0 l/m 4,4 km/h (1 Bft) E-SE 1,00 h 0,254 mm 180 W/m 19,8 C 24,8 C 7,0 km/h (2 Bft)
19/07/2008 20:00 23,2 C 78 % 1013,4 hPa 0,0 l/m 1,5 km/h (1 Bft) NE 0,08 h 0,127 mm 32 W/m 19,2 C 23,2 C 3,1 km/h (1 Bft)
19/07/2008 21:00 21,6 C 83 % 1013,5 hPa 0,0 l/m 0,1 km/h (0 Bft) NE 0,00 h 0,025 mm 6 W/m 18,7 C 21,6 C 0,5 km/h (0 Bft)
19/07/2008 22:00 20,9 C 87 % 1014,0 hPa 0,0 l/m 0,1 km/h (0 Bft) NE 0,00 h 0,000 mm 0 W/m 18,7 C 20,9 C 0,2 km/h (0 Bft)
19/07/2008 23:00 20,3 C 89 % 1014,1 hPa 0,0 l/m 1,6 km/h (1 Bft) NE 0,00 h 0,025 mm 0 W/m 18,4 C 20,3 C 2,3 km/h (1 Bft)
20/07/2008 00:00 19,6 C 90 % 1014,0 hPa 0,0 l/m 1,3 km/h (1 Bft) NE 0,00 h 0,025 mm 0 W/m 17,9 C 19,6 C 2,8 km/h (1 Bft)
20/07/2008 01:00 19,2 C 91 % 1013,7 hPa 0,0 l/m 2,7 km/h (1 Bft) O-NO 0,00 h 0,025 mm 0 W/m 17,7 C 19,2 C 4,0 km/h (1 Bft)
20/07/2008 02:00 19,0 C 92 % 1013,5 hPa 0,0 l/m 3,2 km/h (1 Bft) O-NO 0,00 h 0,025 mm 0 W/m 17,6 C 19,0 C 4,5 km/h (1 Bft)
20/07/2008 03:00 18,7 C 92 % 1013,3 hPa 0,0 l/m 1,1 km/h (0 Bft) O-NO 0,00 h 0,025 mm 0 W/m 17,4 C 18,7 C 2,2 km/h (1 Bft)
20/07/2008 04:00 18,5 C 92 % 1013,0 hPa 0,0 l/m 0,9 km/h (0 Bft) O-NO 0,00 h 0,025 mm 0 W/m 17,2 C 18,5 C 1,3 km/h (1 Bft)
20/07/2008 05:00 18,4 C 92 % 1012,8 hPa 0,0 l/m 0,7 km/h (0 Bft) O-NO 0,00 h 0,025 mm 0 W/m 17,1 C 18,4 C 1,4 km/h (1 Bft)
20/07/2008 06:00 18,7 C 92 % 1013,0 hPa 0,0 l/m 0,7 km/h (0 Bft) O-NO 0,00 h 0,000 mm 15 W/m 17,3 C 18,7 C 1,5 km/h (1 Bft)
20/07/2008 07:00 19,4 C 92 % 1013,1 hPa 0,0 l/m 0,1 km/h (0 Bft) O-NO 0,13 h 0,000 mm 96 W/m 18,1 C 19,4 C 0,3 km/h (0 Bft)
20/07/2008 08:00 21,6 C 87 % 1013,1 hPa 0,0 l/m 1,0 km/h (0 Bft) E-NE 0,92 h 0,051 mm 298 W/m 19,3 C 21,6 C 2,2 km/h (1 Bft)
20/07/2008 09:00 23,7 C 76 % 1013,2 hPa 0,0 l/m 3,1 km/h (1 Bft) E 0,80 h 0,178 mm 428 W/m 19,1 C 23,7 C 5,7 km/h (1 Bft)
20/07/2008 10:00 24,9 C 69 % 1012,9 hPa 0,0 l/m 4,2 km/h (1 Bft) E 0,68 h 0,279 mm 423 W/m 18,8 C 24,9 C 6,6 km/h (2 Bft)
20/07/2008 11:00 24,4 C 76 % 1012,6 hPa 0,0 l/m 6,9 km/h (2 Bft) E 0,17 h 0,279 mm 270 W/m 19,9 C 24,4 C 10,4 km/h (2 Bft)
20/07/2008 12:00 23,5 C 80 % 1012,4 hPa 0,0 l/m 3,4 km/h (1 Bft) E 0,12 h 0,203 mm 339 W/m 19,7 C 23,5 C 5,8 km/h (2 Bft)
20/07/2008 13:00 25,2 C 72 % 1013,0 hPa 0,0 l/m 6,4 km/h (2 Bft) E 0,42 h 0,229 mm 497 W/m 19,8 C 25,2 C 10,4 km/h (2 Bft)
20/07/2008 14:00 23,1 C 81 % 1013,5 hPa 0,0 l/m 6,6 km/h (2 Bft) SE 0,00 h 0,330 mm 224 W/m 19,6 C 23,1 C 10,0 km/h (2 Bft)
20/07/2008 15:00 24,3 C 78 % 1012,5 hPa 0,0 l/m 5,7 km/h (1 Bft) E-NE 0,38 h 0,152 mm 496 W/m 20,3 C 24,3 C 8,7 km/h (2 Bft)
20/07/2008 16:00 26,7 C 69 % 1011,8 hPa 0,0 l/m 6,1 km/h (2 Bft) E-NE 0,70 h 0,305 mm 538 W/m 20,5 C 26,7 C 9,7 km/h (2 Bft)
20/07/2008 17:00 25,1 C 76 % 1012,0 hPa 0,0 l/m 4,8 km/h (1 Bft) E 0,50 h 0,381 mm 342 W/m 20,5 C 25,1 C 8,1 km/h (2 Bft)
20/07/2008 18:00 25,3 C 75 % 1012,0 hPa 0,0 l/m 4,1 km/h (1 Bft) E-SE 0,68 h 0,229 mm 296 W/m 20,4 C 25,3 C 6,3 km/h (2 Bft)
20/07/2008 19:00 25,1 C 78 % 1011,2 hPa 0,0 l/m 2,8 km/h (1 Bft) E 0,67 h 0,203 mm 159 W/m 21,0 C 25,1 C 5,3 km/h (1 Bft)
20/07/2008 20:00 23,1 C 86 % 1010,6 hPa 0,0 l/m 1,6 km/h (1 Bft) N-NO 0,20 h 0,102 mm 22 W/m 20,6 C 23,1 C 3,6 km/h (1 Bft)
20/07/2008 21:00 22,2 C 89 % 1010,1 hPa 0,0 l/m 2,2 km/h (1 Bft) E-SE 0,00 h 0,025 mm 13 W/m 20,3 C 22,2 C 3,9 km/h (1 Bft)
20/07/2008 22:00 21,7 C 91 % 1010,7 hPa 0,0 l/m 0,9 km/h (0 Bft) E-NE 0,00 h 0,000 mm 0 W/m 20,2 C 21,7 C 1,3 km/h (1 Bft)
20/07/2008 23:00 21,3 C 91 % 1010,6 hPa 0,0 l/m 1,5 km/h (1 Bft) E 0,00 h 0,025 mm 0 W/m 19,8 C 21,3 C 2,6 km/h (1 Bft)
Min-Date _ 14/07/08 15/07/08 14/07/08 - 14/07/08 - - - - 14/07/08 14/07/08 14/07/08
_ Min-Heure 06:46 15:48 00:00 - 01:56 - - - - 02:10 06:46 06:52
Minimum _ 17,1 C 24 % 1005,0 hPa - 0,0 km/h (0 Bft) - - - - 4,8 C 17,1 C 0,0 km/h (0 Bft)
Max-Date _ 15/07/08 18/07/08 15/07/08 14/07/08 14/07/08 - 14/07/08 15/07/08 14/07/08 20/07/08 15/07/08 14/07/08
_ Max-Heure 13:18 06:59 14:30 00:00 00:21 - 07:47 13:00 14:04 19:31 13:18 00:13
Maximum _ 29,1 C 95 % 1023,1 hPa 0,0 l/m 29,0 km/h
SO (5 Bft)
- 0,02 h 0,711 mm 1292 W/m 22,0 C 29,1 C 37,0 km/h
SO (5 Bft)
Moyenne _ 22,4 C 68 % 1013,9 hPa #0,0 l/m 5,2 km/h (1 Bft) E #69:59 h #35,902 mm 401 W/m 15,6 C 22,4 C 8,1 km/h (2 Bft)
Roquefort les pins